createdAt,value
2019-03-25T00:02:43.341Z,7.10
2019-03-25T00:06:49.678Z,7.00
2019-03-25T00:10:55.934Z,6.90
2019-03-25T00:15:02.484Z,6.80
2019-03-25T00:19:08.668Z,6.90
2019-03-25T00:23:14.995Z,6.90
2019-03-25T00:27:21.358Z,6.80
2019-03-25T00:31:27.731Z,6.80
2019-03-25T00:35:34.031Z,6.60
2019-03-25T00:39:40.297Z,6.70
2019-03-25T00:43:46.505Z,6.70
2019-03-25T00:47:52.806Z,6.60
2019-03-25T00:51:59.098Z,6.70
2019-03-25T00:56:05.405Z,6.70
2019-03-25T01:00:12.822Z,6.60
2019-03-25T01:04:21.204Z,6.60
2019-03-25T01:08:27.494Z,6.60
2019-03-25T01:12:33.803Z,6.50
2019-03-25T01:16:40.412Z,6.40
2019-03-25T01:20:46.757Z,6.40
2019-03-25T01:25:01.241Z,6.50
2019-03-25T01:29:01.281Z,6.60
2019-03-25T01:33:07.658Z,6.60
2019-03-25T01:37:13.828Z,6.60
2019-03-25T01:41:20.115Z,6.80
2019-03-25T01:45:26.389Z,6.60
2019-03-25T01:49:32.591Z,6.60
2019-03-25T01:53:38.843Z,6.60
2019-03-25T01:57:45.142Z,6.60
2019-03-25T02:01:51.400Z,6.60
2019-03-25T02:05:57.631Z,6.70
2019-03-25T02:10:04.188Z,6.80
2019-03-25T02:14:10.759Z,6.90
2019-03-25T02:18:17.366Z,6.90
2019-03-25T02:22:23.716Z,6.80
2019-03-25T02:26:30.017Z,6.80
2019-03-25T02:30:36.324Z,6.80
2019-03-25T02:34:42.630Z,6.70
2019-03-25T02:38:57.675Z,6.90
2019-03-25T02:43:03.961Z,6.90
2019-03-25T02:47:10.260Z,6.90
2019-03-25T02:51:16.530Z,7.00
2019-03-25T02:55:23.305Z,7.00
2019-03-25T02:59:29.511Z,7.00
2019-03-25T03:03:35.723Z,6.90
2019-03-25T03:07:42.055Z,7.00
2019-03-25T03:11:48.674Z,6.90
2019-03-25T03:15:54.983Z,6.90
2019-03-25T03:20:01.179Z,6.90
2019-03-25T03:24:07.422Z,6.90
2019-03-25T03:28:13.691Z,6.90
2019-03-25T03:32:19.939Z,6.90
2019-03-25T03:36:26.240Z,7.00
2019-03-25T03:40:32.518Z,7.00
2019-03-25T03:44:38.813Z,7.00
2019-03-25T03:48:45.100Z,7.00
2019-03-25T03:52:51.394Z,6.90
2019-03-25T03:56:58.062Z,7.00
2019-03-25T04:01:04.624Z,7.00
2019-03-25T04:05:10.906Z,6.90
2019-03-25T04:09:17.184Z,6.90
2019-03-25T04:13:23.570Z,6.90
2019-03-25T04:17:30.167Z,6.90
2019-03-25T04:21:36.462Z,6.90
2019-03-25T04:25:42.713Z,7.00
2019-03-25T04:29:48.907Z,6.90
2019-03-25T04:33:55.205Z,6.90
2019-03-25T04:38:01.328Z,6.90
2019-03-25T04:42:07.608Z,6.90
2019-03-25T04:46:13.903Z,6.90
2019-03-25T04:50:20.255Z,6.90
2019-03-25T04:54:26.893Z,6.80
2019-03-25T04:58:33.177Z,6.70
2019-03-25T05:02:39.456Z,6.60
2019-03-25T05:06:45.669Z,6.60
2019-03-25T05:10:51.966Z,6.50
2019-03-25T05:14:58.827Z,6.50
2019-03-25T05:19:05.444Z,6.40
2019-03-25T05:23:12.713Z,6.40
2019-03-25T05:27:19.055Z,6.30
2019-03-25T05:31:25.211Z,6.20
2019-03-25T05:35:31.565Z,6.20
2019-03-25T05:39:37.899Z,6.20
2019-03-25T05:43:44.281Z,6.20
2019-03-25T05:47:50.495Z,6.10
2019-03-25T05:51:57.747Z,6.30
2019-03-25T05:56:05.287Z,6.20
2019-03-25T06:00:12.352Z,6.30
2019-03-25T06:04:18.690Z,6.30
2019-03-25T06:08:26.275Z,6.30
2019-03-25T06:12:32.609Z,6.30
2019-03-25T06:16:40.120Z,6.40
2019-03-25T06:21:02.434Z,6.30
2019-03-25T06:25:09.406Z,6.40
2019-03-25T06:29:15.776Z,6.40
2019-03-25T06:33:22.424Z,6.30
2019-03-25T06:37:29.064Z,6.30
2019-03-25T06:41:35.427Z,6.40
2019-03-25T06:45:44.566Z,6.40
2019-03-25T06:49:51.432Z,6.50
2019-03-25T06:53:58.152Z,6.50
2019-03-25T06:58:06.153Z,6.60
2019-03-25T07:02:12.621Z,6.60
2019-03-25T07:06:19.224Z,6.70
2019-03-25T07:10:36.809Z,6.70
2019-03-25T07:14:44.346Z,6.80
2019-03-25T07:18:51.162Z,6.80
2019-03-25T07:23:02.858Z,6.90
2019-03-25T07:27:16.664Z,6.80
2019-03-25T07:31:23.388Z,6.80
2019-03-25T07:35:29.783Z,7.00
2019-03-25T07:39:38.059Z,7.20
2019-03-25T07:44:18.544Z,7.30
2019-03-25T07:49:48.691Z,7.40
2019-03-25T07:54:00.797Z,7.50
2019-03-25T07:59:17.561Z,7.60
2019-03-25T08:03:24.147Z,7.80
2019-03-25T08:07:31.530Z,7.80
2019-03-25T08:11:37.800Z,7.80
2019-03-25T08:15:44.131Z,7.90
2019-03-25T08:19:50.393Z,7.80
2019-03-25T08:23:56.941Z,7.80
2019-03-25T08:28:12.343Z,7.80
2019-03-25T08:32:18.643Z,7.70
2019-03-25T08:36:25.043Z,7.80
2019-03-25T08:40:31.339Z,7.90
2019-03-25T08:44:37.772Z,7.90
2019-03-25T08:48:44.075Z,7.80
2019-03-25T08:52:56.290Z,7.80
2019-03-25T08:57:02.628Z,8.00
2019-03-25T09:01:08.961Z,8.00
2019-03-25T09:05:15.475Z,7.90
2019-03-25T09:09:21.698Z,7.60
2019-03-25T09:13:29.113Z,7.80
2019-03-25T09:17:35.496Z,7.60
2019-03-25T09:21:42.142Z,7.80
2019-03-25T09:25:48.410Z,7.80
2019-03-25T09:30:57.107Z,7.70
2019-03-25T09:35:03.542Z,7.70
2019-03-25T09:39:09.856Z,7.90
2019-03-25T09:43:16.285Z,8.10
2019-03-25T09:47:22.596Z,8.40
2019-03-25T09:51:28.912Z,8.30
2019-03-25T09:55:35.385Z,8.70
2019-03-25T09:59:41.673Z,8.60
2019-03-25T10:03:48.019Z,8.80
2019-03-25T10:07:54.315Z,8.40
2019-03-25T10:12:00.759Z,8.20
2019-03-25T10:16:07.588Z,7.70
2019-03-25T10:20:14.001Z,7.20
2019-03-25T10:24:27.418Z,7.10
2019-03-25T10:28:28.251Z,7.30
2019-03-25T10:32:34.456Z,7.60
2019-03-25T10:36:40.710Z,7.80
2019-03-25T10:40:47.001Z,8.10
2019-03-25T10:44:53.452Z,8.40
2019-03-25T10:48:59.702Z,8.40
2019-03-25T10:53:07.197Z,8.60
2019-03-25T10:57:13.591Z,8.90
2019-03-25T11:01:19.958Z,8.90
2019-03-25T11:05:26.296Z,8.80
2019-03-25T11:09:32.687Z,8.90
2019-03-25T11:13:39.015Z,8.80
2019-03-25T11:17:45.304Z,8.50
2019-03-25T11:21:52.637Z,7.30
2019-03-25T11:26:00.394Z,6.60
2019-03-25T11:30:09.248Z,7.00
2019-03-25T11:34:15.926Z,7.30
2019-03-25T11:38:22.263Z,7.70
2019-03-25T11:42:28.809Z,8.10
2019-03-25T11:46:35.432Z,8.20
2019-03-25T11:50:41.969Z,8.00
2019-03-25T11:54:48.266Z,8.10
2019-03-25T11:58:54.546Z,8.20
2019-03-25T12:03:00.949Z,8.40
2019-03-25T12:07:07.324Z,8.60
2019-03-25T12:11:13.589Z,8.90
2019-03-25T12:15:19.864Z,9.00
2019-03-25T12:19:26.204Z,9.30
2019-03-25T12:23:33.481Z,9.10
2019-03-25T12:27:39.754Z,8.70
2019-03-25T12:31:46.150Z,7.80
2019-03-25T12:35:52.734Z,7.70
2019-03-25T12:39:59.139Z,7.90
2019-03-25T12:44:05.718Z,8.20
2019-03-25T12:48:17.951Z,8.20
2019-03-25T12:52:24.239Z,8.10
2019-03-25T12:56:30.546Z,8.10
2019-03-25T13:00:43.411Z,8.40
2019-03-25T13:04:51.073Z,8.60
2019-03-25T13:09:00.043Z,8.60
2019-03-25T13:13:14.166Z,8.60
2019-03-25T13:17:20.543Z,8.70
2019-03-25T13:22:25.729Z,8.90
2019-03-25T13:26:34.222Z,9.00
2019-03-25T13:30:43.536Z,9.00
2019-03-25T13:34:54.714Z,9.00
2019-03-25T13:39:09.376Z,8.90
2019-03-25T13:43:16.143Z,8.90
2019-03-25T13:47:23.851Z,8.90
2019-03-25T13:51:30.184Z,9.10
2019-03-25T13:55:37.080Z,9.30
2019-03-25T13:59:43.488Z,9.30
2019-03-25T14:03:49.698Z,9.30
2019-03-25T14:07:56.038Z,9.30
2019-03-25T14:12:02.471Z,9.20
2019-03-25T14:16:08.974Z,8.90
2019-03-25T14:20:17.317Z,8.70
2019-03-25T14:24:23.824Z,8.80
2019-03-25T14:28:42.314Z,8.30
2019-03-25T14:32:48.542Z,7.90
2019-03-25T14:36:54.901Z,8.00
2019-03-25T14:41:01.217Z,8.20
2019-03-25T14:45:09.562Z,8.50
2019-03-25T14:49:15.828Z,8.90
2019-03-25T14:53:22.696Z,9.10
2019-03-25T14:57:29.014Z,9.30
2019-03-25T15:01:35.527Z,9.40
2019-03-25T15:05:41.832Z,9.70
2019-03-25T15:09:48.323Z,9.70
2019-03-25T15:13:54.681Z,9.80
2019-03-25T15:18:00.954Z,9.70
2019-03-25T15:22:07.212Z,9.50
2019-03-25T15:26:13.504Z,9.40
2019-03-25T15:30:20.781Z,9.30
2019-03-25T15:34:26.987Z,9.00
2019-03-25T15:38:33.670Z,8.90
2019-03-25T15:42:40.761Z,8.90
2019-03-25T15:46:55.287Z,8.90
2019-03-25T15:50:54.940Z,8.90
2019-03-25T15:55:01.329Z,8.70
2019-03-25T15:59:07.701Z,8.80
2019-03-25T16:03:14.004Z,8.70
2019-03-25T16:07:39.303Z,8.90
2019-03-25T16:11:45.607Z,9.00
2019-03-25T16:15:51.927Z,8.90
2019-03-25T16:19:58.221Z,8.90
2019-03-25T16:24:04.500Z,8.80
2019-03-25T16:28:15.648Z,8.80
2019-03-25T16:32:20.885Z,8.80
2019-03-25T16:36:27.277Z,8.80
2019-03-25T16:40:33.617Z,8.80
2019-03-25T16:44:40.900Z,8.80
2019-03-25T16:48:47.216Z,8.70
2019-03-25T16:52:53.513Z,8.70
2019-03-25T16:56:59.904Z,8.60
2019-03-25T17:01:15.535Z,8.60
2019-03-25T17:05:21.814Z,8.60
2019-03-25T17:09:28.138Z,8.60
2019-03-25T17:13:34.887Z,8.60
2019-03-25T17:17:41.163Z,8.60
2019-03-25T17:21:57.737Z,8.60
2019-03-25T17:25:55.904Z,8.60
2019-03-25T17:30:02.157Z,8.50
2019-03-25T17:34:08.458Z,8.50
2019-03-25T17:38:14.906Z,8.50
2019-03-25T17:42:21.211Z,8.50
2019-03-25T17:46:27.560Z,8.50
2019-03-25T17:50:33.969Z,8.50
2019-03-25T17:54:41.623Z,8.50
2019-03-25T17:58:51.109Z,8.50
2019-03-25T18:02:57.469Z,8.40
2019-03-25T18:07:03.847Z,8.40
2019-03-25T18:11:10.478Z,8.40
2019-03-25T18:15:17.074Z,8.50
2019-03-25T18:19:25.491Z,8.40
2019-03-25T18:23:31.643Z,8.40
2019-03-25T18:27:38.215Z,8.30
2019-03-25T18:31:45.637Z,8.30
2019-03-25T18:35:51.965Z,8.40
2019-03-25T18:39:58.125Z,8.30
2019-03-25T18:44:06.809Z,8.30
2019-03-25T18:48:13.143Z,8.30
2019-03-25T18:52:19.673Z,8.30
2019-03-25T18:56:25.985Z,8.20
2019-03-25T19:00:36.082Z,8.20
2019-03-25T19:04:42.435Z,8.30
2019-03-25T19:08:49.410Z,8.20
2019-03-25T19:12:56.666Z,8.20
2019-03-25T19:17:05.523Z,8.20
2019-03-25T19:21:11.997Z,8.20
2019-03-25T19:25:19.303Z,8.10
2019-03-25T19:29:25.906Z,8.10
2019-03-25T19:33:32.248Z,8.00
2019-03-25T19:37:38.580Z,8.00
2019-03-25T19:41:44.850Z,8.00
2019-03-25T19:45:52.359Z,8.00
2019-03-25T19:49:59.076Z,7.90
2019-03-25T19:54:05.580Z,7.90
2019-03-25T19:58:13.475Z,7.70
2019-03-25T20:02:19.976Z,7.70
2019-03-25T20:06:26.723Z,7.60
2019-03-25T20:10:35.458Z,7.70
2019-03-25T20:14:41.998Z,7.60
2019-03-25T20:18:48.471Z,7.60
2019-03-25T20:22:55.000Z,7.60
2019-03-25T20:27:01.443Z,7.60
2019-03-25T20:31:07.962Z,7.60
2019-03-25T20:35:16.668Z,7.60
2019-03-25T20:39:23.281Z,7.60
2019-03-25T20:43:32.973Z,7.60
2019-03-25T20:47:39.639Z,7.50
2019-03-25T20:51:46.066Z,7.60
2019-03-25T20:55:52.593Z,7.60
2019-03-25T21:00:02.274Z,7.50
2019-03-25T21:04:08.825Z,7.50
2019-03-25T21:08:17.222Z,7.50
2019-03-25T21:12:25.901Z,7.60
2019-03-25T21:16:33.954Z,7.50
2019-03-25T21:20:40.401Z,7.60
2019-03-25T21:24:48.514Z,7.60
2019-03-25T21:28:55.068Z,7.50
2019-03-25T21:33:01.835Z,7.40
2019-03-25T21:37:10.468Z,7.40
2019-03-25T21:41:19.615Z,7.40
2019-03-25T21:45:26.178Z,7.40
2019-03-25T21:49:32.490Z,7.50
2019-03-25T21:53:38.706Z,7.40
2019-03-25T21:57:45.056Z,7.40
2019-03-25T22:01:51.347Z,7.50
2019-03-25T22:05:57.923Z,7.30
2019-03-25T22:10:04.400Z,7.40
2019-03-25T22:14:11.016Z,7.50
2019-03-25T22:18:17.299Z,7.50
2019-03-25T22:22:23.534Z,7.40
2019-03-25T22:26:29.875Z,7.40
2019-03-25T22:30:36.087Z,7.30
2019-03-25T22:34:42.437Z,7.30
2019-03-25T22:38:49.123Z,7.30
2019-03-25T22:42:55.814Z,7.40
2019-03-25T22:47:02.204Z,7.50
2019-03-25T22:51:08.532Z,7.50
2019-03-25T22:55:16.877Z,7.30
2019-03-25T22:59:23.229Z,7.30
2019-03-25T23:03:39.011Z,7.30
2019-03-25T23:07:37.856Z,7.30
2019-03-25T23:11:44.454Z,7.40
2019-03-25T23:15:50.810Z,7.40
2019-03-25T23:19:57.114Z,7.30
2019-03-25T23:24:03.462Z,7.30
2019-03-25T23:28:11.217Z,7.30
2019-03-25T23:32:17.567Z,7.20
2019-03-25T23:36:23.987Z,7.20
2019-03-25T23:40:30.700Z,7.20
2019-03-25T23:44:37.086Z,7.20
2019-03-25T23:48:43.696Z,7.20
2019-03-25T23:52:50.118Z,7.40
2019-03-25T23:56:56.457Z,7.30
